Terminal Aerodrome Forecast
Issued by NWS

Home | Current Version | Previous Version | Text Only | Print | Product List | Glossary On
Versions: 1 2 3 4 5 6 7 8 9 10 11 12 13 14 15 16 17 18 19
000
FTUS45 KTFX 261100
TAFHVR
TAF
KHVR 261120Z 2612/2712 VRB03KT 4SM -SN BR SCT010 OVC020
      TEMPO 2614/2617 1SM -SN BR OVC010
     FM261700 09006KT 4SM -SN BR SCT015 BKN030
      TEMPO 2619/2622 2SM -SN BR BKN015
     FM262300 10009KT 6SM -SHSN BR SCT025 BKN050
      TEMPO 2700/2703 3SM -SN BR BKN030=

USA.gov is the U.S. government's official web portal to all federal, state and local government web resources and services.